sensor_id;sensor_type;location;lat;lon;timestamp;temperature;humidity
23395;DHT22;11870;53.084;18.206;2023-10-13T00:00:30;3.50;99.90
23395;DHT22;11870;53.084;18.206;2023-10-13T00:03:19;3.40;99.90
23395;DHT22;11870;53.084;18.206;2023-10-13T00:05:45;3.20;99.90
23395;DHT22;11870;53.084;18.206;2023-10-13T00:08:13;3.20;99.90
23395;DHT22;11870;53.084;18.206;2023-10-13T00:10:39;3.10;99.90
23395;DHT22;11870;53.084;18.206;2023-10-13T00:13:05;3.10;99.90
23395;DHT22;11870;53.084;18.206;2023-10-13T00:15:45;3.10;99.90
23395;DHT22;11870;53.084;18.206;2023-10-13T00:18:32;3.00;99.90
23395;DHT22;11870;53.084;18.206;2023-10-13T00:21:08;3.00;99.90
23395;DHT22;11870;53.084;18.206;2023-10-13T00:23:43;4.00;99.90
23395;DHT22;11870;53.084;18.206;2023-10-13T00:26:27;3.10;99.90
23395;DHT22;11870;53.084;18.206;2023-10-13T00:28:58;3.00;99.90
23395;DHT22;11870;53.084;18.206;2023-10-13T00:31:26;2.90;99.90
23395;DHT22;11870;53.084;18.206;2023-10-13T00:33:59;2.80;99.90
23395;DHT22;11870;53.084;18.206;2023-10-13T00:36:44;2.90;99.90
23395;DHT22;11870;53.084;18.206;2023-10-13T00:39:32;2.90;99.90
23395;DHT22;11870;53.084;18.206;2023-10-13T00:42:02;2.80;99.90
23395;DHT22;11870;53.084;18.206;2023-10-13T00:44:33;2.80;99.90
23395;DHT22;11870;53.084;18.206;2023-10-13T00:47:10;2.80;99.90
23395;DHT22;11870;53.084;18.206;2023-10-13T00:49:46;2.70;99.90
23395;DHT22;11870;53.084;18.206;2023-10-13T00:52:15;2.60;99.90
23395;DHT22;11870;53.084;18.206;2023-10-13T00:54:42;2.50;99.90
23395;DHT22;11870;53.084;18.206;2023-10-13T00:57:13;2.50;99.90
23395;DHT22;11870;53.084;18.206;2023-10-13T00:59:56;2.50;99.90
23395;DHT22;11870;53.084;18.206;2023-10-13T01:02:25;2.50;99.90
23395;DHT22;11870;53.084;18.206;2023-10-13T01:05:05;2.40;99.90
23395;DHT22;11870;53.084;18.206;2023-10-13T01:07:46;2.40;99.90
23395;DHT22;11870;53.084;18.206;2023-10-13T01:10:19;2.50;99.90
23395;DHT22;11870;53.084;18.206;2023-10-13T01:12:46;2.50;99.90
23395;DHT22;11870;53.084;18.206;2023-10-13T01:15:13;2.70;99.90
23395;DHT22;11870;53.084;18.206;2023-10-13T01:17:46;2.70;99.90
23395;DHT22;11870;53.084;18.206;2023-10-13T01:20:13;2.60;99.90
23395;DHT22;11870;53.084;18.206;2023-10-13T01:22:50;2.60;99.90
23395;DHT22;11870;53.084;18.206;2023-10-13T01:25:23;2.50;99.90
23395;DHT22;11870;53.084;18.206;2023-10-13T01:27:54;2.50;99.90
23395;DHT22;11870;53.084;18.206;2023-10-13T01:30:20;2.50;99.90
23395;DHT22;11870;53.084;18.206;2023-10-13T01:32:52;2.50;99.90
23395;DHT22;11870;53.084;18.206;2023-10-13T01:35:20;2.50;99.90
23395;DHT22;11870;53.084;18.206;2023-10-13T01:37:51;3.50;99.90
23395;DHT22;11870;53.084;18.206;2023-10-13T01:40:18;2.50;99.90
23395;DHT22;11870;53.084;18.206;2023-10-13T01:42:46;2.50;99.90
23395;DHT22;11870;53.084;18.206;2023-10-13T01:45:12;2.50;99.90
23395;DHT22;11870;53.084;18.206;2023-10-13T01:47:40;2.50;99.90
23395;DHT22;11870;53.084;18.206;2023-10-13T01:50:07;2.40;99.90
23395;DHT22;11870;53.084;18.206;2023-10-13T01:52:40;2.40;99.90
23395;DHT22;11870;53.084;18.206;2023-10-13T01:55:08;2.40;99.90
23395;DHT22;11870;53.084;18.206;2023-10-13T01:57:36;2.50;99.90
23395;DHT22;11870;53.084;18.206;2023-10-13T02:00:02;2.70;99.90
23395;DHT22;11870;53.084;18.206;2023-10-13T02:02:35;2.60;99.90
23395;DHT22;11870;53.084;18.206;2023-10-13T02:05:08;2.60;99.90
23395;DHT22;11870;53.084;18.206;2023-10-13T02:07:34;2.60;99.90
23395;DHT22;11870;53.084;18.206;2023-10-13T02:10:05;2.50;99.90
23395;DHT22;11870;53.084;18.206;2023-10-13T02:12:31;2.50;99.90
23395;DHT22;11870;53.084;18.206;2023-10-13T02:15:23;2.50;99.90
23395;DHT22;11870;53.084;18.206;2023-10-13T02:17:53;2.60;99.90
23395;DHT22;11870;53.084;18.206;2023-10-13T02:20:21;2.70;99.90
23395;DHT22;11870;53.084;18.206;2023-10-13T02:22:49;2.90;99.90
23395;DHT22;11870;53.084;18.206;2023-10-13T02:25:16;3.00;99.90
23395;DHT22;11870;53.084;18.206;2023-10-13T02:27:44;3.40;99.90
23395;DHT22;11870;53.084;18.206;2023-10-13T02:30:14;3.20;99.90
23395;DHT22;11870;53.084;18.206;2023-10-13T02:32:40;3.30;99.90
23395;DHT22;11870;53.084;18.206;2023-10-13T02:35:10;3.30;99.90
23395;DHT22;11870;53.084;18.206;2023-10-13T02:37:41;3.20;99.90
23395;DHT22;11870;53.084;18.206;2023-10-13T02:40:13;3.20;99.90
23395;DHT22;11870;53.084;18.206;2023-10-13T02:42:39;3.20;99.90
23395;DHT22;11870;53.084;18.206;2023-10-13T02:45:06;3.20;99.90
23395;DHT22;11870;53.084;18.206;2023-10-13T02:47:33;3.20;99.90
23395;DHT22;11870;53.084;18.206;2023-10-13T02:49:59;3.10;99.90
23395;DHT22;11870;53.084;18.206;2023-10-13T02:52:27;3.10;99.90
23395;DHT22;11870;53.084;18.206;2023-10-13T02:54:53;3.10;99.90
23395;DHT22;11870;53.084;18.206;2023-10-13T02:57:19;3.00;99.90
23395;DHT22;11870;53.084;18.206;2023-10-13T02:59:45;3.00;99.90
23395;DHT22;11870;53.084;18.206;2023-10-13T03:02:21;3.00;99.90
23395;DHT22;11870;53.084;18.206;2023-10-13T03:04:52;3.10;99.90
23395;DHT22;11870;53.084;18.206;2023-10-13T03:07:28;3.10;99.90
23395;DHT22;11870;53.084;18.206;2023-10-13T03:09:57;3.20;99.90
23395;DHT22;11870;53.084;18.206;2023-10-13T03:12:26;3.30;99.90
23395;DHT22;11870;53.084;18.206;2023-10-13T03:14:59;3.20;99.90
23395;DHT22;11870;53.084;18.206;2023-10-13T03:17:44;3.40;99.90
23395;DHT22;11870;53.084;18.206;2023-10-13T03:20:11;3.40;99.90
23395;DHT22;11870;53.084;18.206;2023-10-13T03:22:39;3.50;99.90
23395;DHT22;11870;53.084;18.206;2023-10-13T03:25:05;3.50;99.90
23395;DHT22;11870;53.084;18.206;2023-10-13T03:27:32;3.50;99.90
23395;DHT22;11870;53.084;18.206;2023-10-13T03:30:06;3.50;99.90
23395;DHT22;11870;53.084;18.206;2023-10-13T03:32:41;3.60;99.90
23395;DHT22;11870;53.084;18.206;2023-10-13T03:35:20;3.50;99.90
23395;DHT22;11870;53.084;18.206;2023-10-13T03:37:52;3.40;99.90
23395;DHT22;11870;53.084;18.206;2023-10-13T03:40:19;3.40;99.90
23395;DHT22;11870;53.084;18.206;2023-10-13T03:42:56;3.40;99.90
23395;DHT22;11870;53.084;18.206;2023-10-13T03:45:42;3.40;99.90
23395;DHT22;11870;53.084;18.206;2023-10-13T03:48:10;3.40;99.90
23395;DHT22;11870;53.084;18.206;2023-10-13T03:50:38;3.40;99.90
23395;DHT22;11870;53.084;18.206;2023-10-13T03:53:13;3.40;99.90
23395;DHT22;11870;53.084;18.206;2023-10-13T03:55:40;3.30;99.90
23395;DHT22;11870;53.084;18.206;2023-10-13T03:58:14;3.10;99.90
23395;DHT22;11870;53.084;18.206;2023-10-13T04:00:42;3.10;99.90
23395;DHT22;11870;53.084;18.206;2023-10-13T04:03:08;3.10;99.90
23395;DHT22;11870;53.084;18.206;2023-10-13T04:05:36;3.10;99.90
23395;DHT22;11870;53.084;18.206;2023-10-13T04:08:10;3.10;99.90
23395;DHT22;11870;53.084;18.206;2023-10-13T04:10:52;3.10;99.90
23395;DHT22;11870;53.084;18.206;2023-10-13T04:13:18;3.10;99.90
23395;DHT22;11870;53.084;18.206;2023-10-13T04:16:10;3.10;99.90
23395;DHT22;11870;53.084;18.206;2023-10-13T04:18:51;3.10;99.90
23395;DHT22;11870;53.084;18.206;2023-10-13T04:21:26;3.00;99.90
23395;DHT22;11870;53.084;18.206;2023-10-13T04:26:49;3.10;99.90
23395;DHT22;11870;53.084;18.206;2023-10-13T04:29:34;3.20;99.90
23395;DHT22;11870;53.084;18.206;2023-10-13T04:32:18;3.30;99.90
23395;DHT22;11870;53.084;18.206;2023-10-13T04:35:00;3.40;99.90
23395;DHT22;11870;53.084;18.206;2023-10-13T04:37:38;3.50;99.90
23395;DHT22;11870;53.084;18.206;2023-10-13T04:40:20;3.70;99.90
23395;DHT22;11870;53.084;18.206;2023-10-13T04:42:51;3.60;99.90
23395;DHT22;11870;53.084;18.206;2023-10-13T04:45:23;3.70;99.90
23395;DHT22;11870;53.084;18.206;2023-10-13T04:48:00;3.70;99.90
23395;DHT22;11870;53.084;18.206;2023-10-13T04:50:46;3.80;99.90
23395;DHT22;11870;53.084;18.206;2023-10-13T04:53:14;3.80;99.90
23395;DHT22;11870;53.084;18.206;2023-10-13T04:56:00;3.90;99.90
23395;DHT22;11870;53.084;18.206;2023-10-13T04:58:33;3.90;99.90
23395;DHT22;11870;53.084;18.206;2023-10-13T05:01:05;4.00;99.90
23395;DHT22;11870;53.084;18.206;2023-10-13T05:04:09;4.20;99.90
23395;DHT22;11870;53.084;18.206;2023-10-13T05:06:47;4.10;99.90
23395;DHT22;11870;53.084;18.206;2023-10-13T05:09:32;4.20;99.90
23395;DHT22;11870;53.084;18.206;2023-10-13T05:12:16;4.40;99.90
23395;DHT22;11870;53.084;18.206;2023-10-13T05:15:00;4.50;99.90
23395;DHT22;11870;53.084;18.206;2023-10-13T05:17:45;4.50;99.90
23395;DHT22;11870;53.084;18.206;2023-10-13T05:20:29;4.60;99.90
23395;DHT22;11870;53.084;18.206;2023-10-13T05:23:33;4.60;99.90
23395;DHT22;11870;53.084;18.206;2023-10-13T05:26:28;4.80;99.90
23395;DHT22;11870;53.084;18.206;2023-10-13T05:29:13;4.80;99.90
23395;DHT22;11870;53.084;18.206;2023-10-13T05:31:58;4.80;99.90
23395;DHT22;11870;53.084;18.206;2023-10-13T05:34:42;4.80;99.90
23395;DHT22;11870;53.084;18.206;2023-10-13T05:37:26;4.70;99.90
23395;DHT22;11870;53.084;18.206;2023-10-13T05:40:11;4.60;99.90
23395;DHT22;11870;53.084;18.206;2023-10-13T05:42:55;4.80;99.90
23395;DHT22;11870;53.084;18.206;2023-10-13T05:45:39;5.10;99.90
23395;DHT22;11870;53.084;18.206;2023-10-13T05:48:25;5.10;99.90
23395;DHT22;11870;53.084;18.206;2023-10-13T05:51:08;5.00;99.90
23395;DHT22;11870;53.084;18.206;2023-10-13T05:53:52;5.10;99.90
23395;DHT22;11870;53.084;18.206;2023-10-13T05:56:37;5.10;99.90
23395;DHT22;11870;53.084;18.206;2023-10-13T05:59:22;4.80;99.90
23395;DHT22;11870;53.084;18.206;2023-10-13T06:02:06;4.90;99.90
23395;DHT22;11870;53.084;18.206;2023-10-13T06:04:51;4.90;99.90
23395;DHT22;11870;53.084;18.206;2023-10-13T06:07:35;4.80;99.90
23395;DHT22;11870;53.084;18.206;2023-10-13T06:10:20;4.80;99.90
23395;DHT22;11870;53.084;18.206;2023-10-13T06:13:04;5.20;99.90
23395;DHT22;11870;53.084;18.206;2023-10-13T06:15:48;5.40;99.90
23395;DHT22;11870;53.084;18.206;2023-10-13T06:18:33;5.40;99.90
23395;DHT22;11870;53.084;18.206;2023-10-13T06:21:17;7.00;99.90
23395;DHT22;11870;53.084;18.206;2023-10-13T06:24:02;5.90;99.90
23395;DHT22;11870;53.084;18.206;2023-10-13T06:26:47;6.20;99.90
23395;DHT22;11870;53.084;18.206;2023-10-13T06:29:32;6.30;99.90
23395;DHT22;11870;53.084;18.206;2023-10-13T06:31:59;6.40;99.90
23395;DHT22;11870;53.084;18.206;2023-10-13T06:34:31;6.60;99.90
23395;DHT22;11870;53.084;18.206;2023-10-13T06:37:26;6.60;99.90
23395;DHT22;11870;53.084;18.206;2023-10-13T06:39:57;6.80;99.90
23395;DHT22;11870;53.084;18.206;2023-10-13T06:42:34;6.70;99.90
23395;DHT22;11870;53.084;18.206;2023-10-13T06:45:09;7.00;99.90
23395;DHT22;11870;53.084;18.206;2023-10-13T06:47:36;7.10;99.90
23395;DHT22;11870;53.084;18.206;2023-10-13T06:50:09;7.20;99.90
23395;DHT22;11870;53.084;18.206;2023-10-13T06:52:43;7.50;99.90
23395;DHT22;11870;53.084;18.206;2023-10-13T06:55:09;7.60;99.90
23395;DHT22;11870;53.084;18.206;2023-10-13T06:57:46;7.50;99.90
23395;DHT22;11870;53.084;18.206;2023-10-13T07:00:13;7.60;99.90
23395;DHT22;11870;53.084;18.206;2023-10-13T07:02:51;7.80;99.90
23395;DHT22;11870;53.084;18.206;2023-10-13T07:05:18;9.20;99.90
23395;DHT22;11870;53.084;18.206;2023-10-13T07:07:45;8.00;99.90
23395;DHT22;11870;53.084;18.206;2023-10-13T07:10:14;9.40;99.90
23395;DHT22;11870;53.084;18.206;2023-10-13T07:12:41;8.50;99.90
23395;DHT22;11870;53.084;18.206;2023-10-13T07:15:11;8.60;99.90
23395;DHT22;11870;53.084;18.206;2023-10-13T07:17:46;8.80;99.90
23395;DHT22;11870;53.084;18.206;2023-10-13T07:20:21;9.10;99.90
23395;DHT22;11870;53.084;18.206;2023-10-13T07:22:58;9.30;99.90
23395;DHT22;11870;53.084;18.206;2023-10-13T07:25:29;9.60;99.90
23395;DHT22;11870;53.084;18.206;2023-10-13T07:27:59;9.90;99.90
23395;DHT22;11870;53.084;18.206;2023-10-13T07:30:26;10.00;99.90
23395;DHT22;11870;53.084;18.206;2023-10-13T07:32:53;10.20;99.90
23395;DHT22;11870;53.084;18.206;2023-10-13T07:35:23;10.40;99.90
23395;DHT22;11870;53.084;18.206;2023-10-13T07:37:52;10.60;99.90
23395;DHT22;11870;53.084;18.206;2023-10-13T07:40:22;11.00;99.90
23395;DHT22;11870;53.084;18.206;2023-10-13T07:43:08;11.30;99.90
23395;DHT22;11870;53.084;18.206;2023-10-13T07:45:39;11.50;99.90
23395;DHT22;11870;53.084;18.206;2023-10-13T07:48:08;11.40;99.90
23395;DHT22;11870;53.084;18.206;2023-10-13T07:50:57;12.10;99.90
23395;DHT22;11870;53.084;18.206;2023-10-13T07:53:24;12.80;99.90
23395;DHT22;11870;53.084;18.206;2023-10-13T07:55:50;11.90;99.90
23395;DHT22;11870;53.084;18.206;2023-10-13T07:58:24;12.10;99.90
23395;DHT22;11870;53.084;18.206;2023-10-13T08:00:53;12.30;99.90
23395;DHT22;11870;53.084;18.206;2023-10-13T08:03:26;12.60;99.90
23395;DHT22;11870;53.084;18.206;2023-10-13T08:06:01;12.90;99.90
23395;DHT22;11870;53.084;18.206;2023-10-13T08:08:46;13.20;99.90
23395;DHT22;11870;53.084;18.206;2023-10-13T08:11:16;14.20;99.90
23395;DHT22;11870;53.084;18.206;2023-10-13T08:13:50;13.50;99.90
23395;DHT22;11870;53.084;18.206;2023-10-13T08:16:28;13.50;99.90
23395;DHT22;11870;53.084;18.206;2023-10-13T08:19:17;13.60;99.90
23395;DHT22;11870;53.084;18.206;2023-10-13T08:21:44;13.50;99.90
23395;DHT22;11870;53.084;18.206;2023-10-13T08:24:23;13.40;99.90
23395;DHT22;11870;53.084;18.206;2023-10-13T08:27:17;13.30;99.90
23395;DHT22;11870;53.084;18.206;2023-10-13T08:29:59;13.70;99.90
23395;DHT22;11870;53.084;18.206;2023-10-13T08:32:44;13.30;99.90
23395;DHT22;11870;53.084;18.206;2023-10-13T08:35:25;13.60;99.90
23395;DHT22;11870;53.084;18.206;2023-10-13T08:38:01;13.50;99.90
23395;DHT22;11870;53.084;18.206;2023-10-13T08:40:30;13.50;99.90
23395;DHT22;11870;53.084;18.206;2023-10-13T08:43:12;14.60;99.90
23395;DHT22;11870;53.084;18.206;2023-10-13T08:45:44;13.40;99.90
23395;DHT22;11870;53.084;18.206;2023-10-13T08:48:13;13.40;99.90
23395;DHT22;11870;53.084;18.206;2023-10-13T08:50:51;13.40;99.90
23395;DHT22;11870;53.084;18.206;2023-10-13T08:53:27;13.50;99.90
23395;DHT22;11870;53.084;18.206;2023-10-13T08:56:04;13.40;99.90
23395;DHT22;11870;53.084;18.206;2023-10-13T08:58:50;13.50;99.90
23395;DHT22;11870;53.084;18.206;2023-10-13T09:01:31;13.70;99.90
23395;DHT22;11870;53.084;18.206;2023-10-13T09:04:26;13.90;99.90
23395;DHT22;11870;53.084;18.206;2023-10-13T09:07:03;13.90;99.90
23395;DHT22;11870;53.084;18.206;2023-10-13T09:12:23;14.00;99.90
23395;DHT22;11870;53.084;18.206;2023-10-13T09:15:03;14.30;99.90
23395;DHT22;11870;53.084;18.206;2023-10-13T09:17:49;13.90;99.90
23395;DHT22;11870;53.084;18.206;2023-10-13T09:20:15;13.90;99.90
23395;DHT22;11870;53.084;18.206;2023-10-13T09:22:51;13.90;99.90
23395;DHT22;11870;53.084;18.206;2023-10-13T09:25:32;14.20;99.90
23395;DHT22;11870;53.084;18.206;2023-10-13T09:28:12;13.90;99.90
23395;DHT22;11870;53.084;18.206;2023-10-13T09:30:51;14.00;99.90
23395;DHT22;11870;53.084;18.206;2023-10-13T09:35:59;14.10;99.90
23395;DHT22;11870;53.084;18.206;2023-10-13T09:38:28;14.10;99.90
23395;DHT22;11870;53.084;18.206;2023-10-13T09:40:54;14.30;99.90
23395;DHT22;11870;53.084;18.206;2023-10-13T09:43:24;14.30;99.90
23395;DHT22;11870;53.084;18.206;2023-10-13T09:45:58;14.40;99.90
23395;DHT22;11870;53.084;18.206;2023-10-13T09:48:36;14.40;99.90
23395;DHT22;11870;53.084;18.206;2023-10-13T09:51:15;14.50;99.90
23395;DHT22;11870;53.084;18.206;2023-10-13T09:53:52;14.80;99.90
23395;DHT22;11870;53.084;18.206;2023-10-13T09:56:29;15.00;99.90
23395;DHT22;11870;53.084;18.206;2023-10-13T09:59:15;15.10;99.90
23395;DHT22;11870;53.084;18.206;2023-10-13T10:01:44;15.10;99.90
23395;DHT22;11870;53.084;18.206;2023-10-13T10:04:18;15.30;99.90
23395;DHT22;11870;53.084;18.206;2023-10-13T10:07:00;15.40;99.90
23395;DHT22;11870;53.084;18.206;2023-10-13T10:09:27;15.60;99.90
23395;DHT22;11870;53.084;18.206;2023-10-13T10:17:27;15.80;99.90
23395;DHT22;11870;53.084;18.206;2023-10-13T10:19:56;16.10;99.90
23395;DHT22;11870;53.084;18.206;2023-10-13T10:22:30;16.00;99.90
23395;DHT22;11870;53.084;18.206;2023-10-13T10:25:02;16.10;99.90
23395;DHT22;11870;53.084;18.206;2023-10-13T10:27:33;16.00;99.90
23395;DHT22;11870;53.084;18.206;2023-10-13T10:30:01;16.20;99.90
23395;DHT22;11870;53.084;18.206;2023-10-13T10:32:36;16.30;99.90
23395;DHT22;11870;53.084;18.206;2023-10-13T10:35:09;16.20;99.90
23395;DHT22;11870;53.084;18.206;2023-10-13T10:37:41;16.40;99.90
23395;DHT22;11870;53.084;18.206;2023-10-13T10:40:16;16.40;99.90
23395;DHT22;11870;53.084;18.206;2023-10-13T10:43:00;16.10;99.90
23395;DHT22;11870;53.084;18.206;2023-10-13T10:45:37;16.30;99.90
23395;DHT22;11870;53.084;18.206;2023-10-13T10:48:12;16.60;99.90
23395;DHT22;11870;53.084;18.206;2023-10-13T10:50:55;16.80;99.90
23395;DHT22;11870;53.084;18.206;2023-10-13T10:53:22;16.70;99.90
23395;DHT22;11870;53.084;18.206;2023-10-13T10:55:49;16.80;99.90
23395;DHT22;11870;53.084;18.206;2023-10-13T10:58:15;17.00;99.90
23395;DHT22;11870;53.084;18.206;2023-10-13T11:01:06;17.20;99.90
23395;DHT22;11870;53.084;18.206;2023-10-13T11:04:03;17.40;99.90
23395;DHT22;11870;53.084;18.206;2023-10-13T11:09:13;17.60;99.90
23395;DHT22;11870;53.084;18.206;2023-10-13T11:11:57;17.80;99.90
23395;DHT22;11870;53.084;18.206;2023-10-13T11:14:44;17.80;99.90
23395;DHT22;11870;53.084;18.206;2023-10-13T11:17:22;18.10;99.90
23395;DHT22;11870;53.084;18.206;2023-10-13T11:20:11;18.60;99.90
23395;DHT22;11870;53.084;18.206;2023-10-13T11:22:47;19.00;99.90
23395;DHT22;11870;53.084;18.206;2023-10-13T11:25:26;19.30;99.90
23395;DHT22;11870;53.084;18.206;2023-10-13T11:28:19;19.70;99.90
23395;DHT22;11870;53.084;18.206;2023-10-13T11:30:56;19.80;99.90
23395;DHT22;11870;53.084;18.206;2023-10-13T11:33:27;19.80;99.90
23395;DHT22;11870;53.084;18.206;2023-10-13T11:35:57;19.80;99.90
23395;DHT22;11870;53.084;18.206;2023-10-13T11:38:29;19.40;99.90
23395;DHT22;11870;53.084;18.206;2023-10-13T11:41:04;19.20;99.90
23395;DHT22;11870;53.084;18.206;2023-10-13T11:43:49;19.30;99.90
23395;DHT22;11870;53.084;18.206;2023-10-13T11:46:20;19.30;99.90
23395;DHT22;11870;53.084;18.206;2023-10-13T11:49:08;19.10;99.90
23395;DHT22;11870;53.084;18.206;2023-10-13T11:51:46;19.20;99.90
23395;DHT22;11870;53.084;18.206;2023-10-13T11:54:17;19.10;99.90
23395;DHT22;11870;53.084;18.206;2023-10-13T11:56:53;18.80;99.90
23395;DHT22;11870;53.084;18.206;2023-10-13T11:59:24;18.80;99.90
23395;DHT22;11870;53.084;18.206;2023-10-13T12:01:52;18.90;99.90
23395;DHT22;11870;53.084;18.206;2023-10-13T12:04:38;19.00;99.90
23395;DHT22;11870;53.084;18.206;2023-10-13T12:07:14;18.90;99.90
23395;DHT22;11870;53.084;18.206;2023-10-13T12:09:50;18.90;99.90
23395;DHT22;11870;53.084;18.206;2023-10-13T12:12:26;18.90;99.90
23395;DHT22;11870;53.084;18.206;2023-10-13T12:14:54;19.10;99.90
23395;DHT22;11870;53.084;18.206;2023-10-13T12:17:28;19.10;99.90
23395;DHT22;11870;53.084;18.206;2023-10-13T12:19:58;19.10;99.90
23395;DHT22;11870;53.084;18.206;2023-10-13T12:22:25;19.00;99.90
23395;DHT22;11870;53.084;18.206;2023-10-13T12:24:56;18.80;99.90
23395;DHT22;11870;53.084;18.206;2023-10-13T12:27:23;18.90;99.90
23395;DHT22;11870;53.084;18.206;2023-10-13T12:29:53;19.00;99.90
23395;DHT22;11870;53.084;18.206;2023-10-13T12:32:22;19.00;99.90
23395;DHT22;11870;53.084;18.206;2023-10-13T12:34:52;19.00;99.90
23395;DHT22;11870;53.084;18.206;2023-10-13T12:37:31;19.00;99.90
23395;DHT22;11870;53.084;18.206;2023-10-13T12:40:15;18.70;99.90
23395;DHT22;11870;53.084;18.206;2023-10-13T12:43:00;18.70;99.90
23395;DHT22;11870;53.084;18.206;2023-10-13T12:45:47;18.60;99.90
23395;DHT22;11870;53.084;18.206;2023-10-13T12:48:33;18.60;99.90
23395;DHT22;11870;53.084;18.206;2023-10-13T12:51:19;18.50;99.90
23395;DHT22;11870;53.084;18.206;2023-10-13T12:53:54;18.50;99.90
23395;DHT22;11870;53.084;18.206;2023-10-13T12:56:21;18.30;99.90
23395;DHT22;11870;53.084;18.206;2023-10-13T12:58:54;18.40;99.90
23395;DHT22;11870;53.084;18.206;2023-10-13T13:01:23;18.40;99.90
23395;DHT22;11870;53.084;18.206;2023-10-13T13:03:52;18.40;99.90
23395;DHT22;11870;53.084;18.206;2023-10-13T13:06:25;18.40;99.90
23395;DHT22;11870;53.084;18.206;2023-10-13T13:09:01;18.40;99.90
23395;DHT22;11870;53.084;18.206;2023-10-13T13:11:28;18.40;99.90
23395;DHT22;11870;53.084;18.206;2023-10-13T13:13:57;18.40;99.90
23395;DHT22;11870;53.084;18.206;2023-10-13T13:16:23;18.30;99.90
23395;DHT22;11870;53.084;18.206;2023-10-13T13:18:56;18.40;99.90
23395;DHT22;11870;53.084;18.206;2023-10-13T13:21:22;18.50;99.90
23395;DHT22;11870;53.084;18.206;2023-10-13T13:23:53;18.60;99.90
23395;DHT22;11870;53.084;18.206;2023-10-13T13:26:22;18.60;99.90
23395;DHT22;11870;53.084;18.206;2023-10-13T13:28:49;18.80;99.90
23395;DHT22;11870;53.084;18.206;2023-10-13T13:31:20;19.00;99.90
23395;DHT22;11870;53.084;18.206;2023-10-13T13:33:55;18.90;99.90
23395;DHT22;11870;53.084;18.206;2023-10-13T13:36:21;18.90;99.90
23395;DHT22;11870;53.084;18.206;2023-10-13T13:38:48;19.00;99.90
23395;DHT22;11870;53.084;18.206;2023-10-13T13:41:20;19.40;99.90
23395;DHT22;11870;53.084;18.206;2023-10-13T13:43:49;19.10;99.90
23395;DHT22;11870;53.084;18.206;2023-10-13T13:46:16;19.10;99.90
23395;DHT22;11870;53.084;18.206;2023-10-13T13:48:42;19.20;99.90
23395;DHT22;11870;53.084;18.206;2023-10-13T13:51:09;19.20;99.90
23395;DHT22;11870;53.084;18.206;2023-10-13T13:53:42;19.20;99.90
23395;DHT22;11870;53.084;18.206;2023-10-13T13:56:16;19.30;99.90
23395;DHT22;11870;53.084;18.206;2023-10-13T13:58:45;19.20;99.90
23395;DHT22;11870;53.084;18.206;2023-10-13T14:01:12;19.20;99.90
23395;DHT22;11870;53.084;18.206;2023-10-13T14:03:42;19.10;99.90
23395;DHT22;11870;53.084;18.206;2023-10-13T14:06:20;19.10;99.90
23395;DHT22;11870;53.084;18.206;2023-10-13T14:08:56;19.10;99.90
23395;DHT22;11870;53.084;18.206;2023-10-13T14:11:24;19.00;99.90
23395;DHT22;11870;53.084;18.206;2023-10-13T14:14:15;19.10;99.90
23395;DHT22;11870;53.084;18.206;2023-10-13T14:16:53;19.10;99.90
23395;DHT22;11870;53.084;18.206;2023-10-13T14:19:28;19.00;99.90
23395;DHT22;11870;53.084;18.206;2023-10-13T14:22:00;18.90;99.90
23395;DHT22;11870;53.084;18.206;2023-10-13T14:24:34;18.80;99.90
23395;DHT22;11870;53.084;18.206;2023-10-13T14:27:02;18.80;99.90
23395;DHT22;11870;53.084;18.206;2023-10-13T14:29:54;18.70;99.90
23395;DHT22;11870;53.084;18.206;2023-10-13T14:32:22;18.70;99.90
23395;DHT22;11870;53.084;18.206;2023-10-13T14:34:51;18.60;99.90
23395;DHT22;11870;53.084;18.206;2023-10-13T14:37:20;18.50;99.90
23395;DHT22;11870;53.084;18.206;2023-10-13T14:39:55;18.50;99.90
23395;DHT22;11870;53.084;18.206;2023-10-13T14:42:24;18.50;99.90
23395;DHT22;11870;53.084;18.206;2023-10-13T14:44:50;18.60;99.90
23395;DHT22;11870;53.084;18.206;2023-10-13T14:47:25;18.60;99.90
23395;DHT22;11870;53.084;18.206;2023-10-13T14:49:52;18.60;99.90
23395;DHT22;11870;53.084;18.206;2023-10-13T14:52:21;18.60;99.90
23395;DHT22;11870;53.084;18.206;2023-10-13T14:54:47;18.50;99.90
23395;DHT22;11870;53.084;18.206;2023-10-13T14:57:16;18.40;99.90
23395;DHT22;11870;53.084;18.206;2023-10-13T14:59:42;19.00;99.90
23395;DHT22;11870;53.084;18.206;2023-10-13T15:02:08;18.30;99.90
23395;DHT22;11870;53.084;18.206;2023-10-13T15:04:34;18.20;99.90
23395;DHT22;11870;53.084;18.206;2023-10-13T15:07:01;18.20;99.90
23395;DHT22;11870;53.084;18.206;2023-10-13T15:09:30;18.10;99.90
23395;DHT22;11870;53.084;18.206;2023-10-13T15:11:57;18.10;99.90
23395;DHT22;11870;53.084;18.206;2023-10-13T15:14:23;18.10;99.90
23395;DHT22;11870;53.084;18.206;2023-10-13T15:16:49;18.00;99.90
23395;DHT22;11870;53.084;18.206;2023-10-13T15:19:15;18.00;99.90
23395;DHT22;11870;53.084;18.206;2023-10-13T15:21:45;18.00;99.90
23395;DHT22;11870;53.084;18.206;2023-10-13T15:24:16;17.90;99.90
23395;DHT22;11870;53.084;18.206;2023-10-13T15:26:44;17.90;99.90
23395;DHT22;11870;53.084;18.206;2023-10-13T15:29:22;17.90;99.90
23395;DHT22;11870;53.084;18.206;2023-10-13T15:31:52;17.90;99.90
23395;DHT22;11870;53.084;18.206;2023-10-13T15:34:24;18.00;99.90
23395;DHT22;11870;53.084;18.206;2023-10-13T15:36:53;18.00;99.90
23395;DHT22;11870;53.084;18.206;2023-10-13T15:39:20;17.90;99.90
23395;DHT22;11870;53.084;18.206;2023-10-13T15:41:57;17.90;99.90
23395;DHT22;11870;53.084;18.206;2023-10-13T15:44:28;17.90;99.90
23395;DHT22;11870;53.084;18.206;2023-10-13T15:46:57;17.80;99.90
23395;DHT22;11870;53.084;18.206;2023-10-13T15:49:24;17.90;99.90
23395;DHT22;11870;53.084;18.206;2023-10-13T15:51:53;17.80;99.90
23395;DHT22;11870;53.084;18.206;2023-10-13T15:54:21;17.80;99.90
23395;DHT22;11870;53.084;18.206;2023-10-13T15:56:50;17.90;99.90
23395;DHT22;11870;53.084;18.206;2023-10-13T15:59:20;17.90;99.90
23395;DHT22;11870;53.084;18.206;2023-10-13T16:01:49;17.90;99.90
23395;DHT22;11870;53.084;18.206;2023-10-13T16:04:20;17.80;99.90
23395;DHT22;11870;53.084;18.206;2023-10-13T16:06:47;17.80;99.90
23395;DHT22;11870;53.084;18.206;2023-10-13T16:09:19;17.90;99.90
23395;DHT22;11870;53.084;18.206;2023-10-13T16:11:49;17.80;99.90
23395;DHT22;11870;53.084;18.206;2023-10-13T16:14:16;17.90;99.90
23395;DHT22;11870;53.084;18.206;2023-10-13T16:16:48;17.80;99.90
23395;DHT22;11870;53.084;18.206;2023-10-13T16:19:15;17.90;99.90
23395;DHT22;11870;53.084;18.206;2023-10-13T16:21:50;17.80;99.90